createdAt,value
2022-11-30T00:01:14.217Z,7.28
2022-11-30T00:03:41.333Z,7.27
2022-11-30T00:06:10.728Z,7.29
2022-11-30T00:08:38.324Z,7.24
2022-11-30T00:11:10.133Z,7.19
2022-11-30T00:13:36.860Z,7.21
2022-11-30T00:16:04.278Z,7.22
2022-11-30T00:18:31.241Z,7.22
2022-11-30T00:21:02.306Z,7.19
2022-11-30T00:23:33.814Z,7.15
2022-11-30T00:26:05.279Z,7.14
2022-11-30T00:28:33.786Z,7.17
2022-11-30T00:31:03.623Z,7.13
2022-11-30T00:33:33.044Z,7.11
2022-11-30T00:36:01.737Z,7.11
2022-11-30T00:38:28.977Z,7.12
2022-11-30T00:40:56.664Z,7.14
2022-11-30T00:43:23.786Z,7.14
2022-11-30T00:45:50.537Z,7.13
2022-11-30T00:48:17.387Z,7.11
2022-11-30T00:50:44.091Z,7.10
2022-11-30T00:53:10.914Z,7.13
2022-11-30T00:55:37.660Z,7.17
2022-11-30T00:58:06.866Z,7.20
2022-11-30T01:00:33.823Z,7.16
2022-11-30T01:03:00.592Z,7.16
2022-11-30T01:05:27.351Z,7.19
2022-11-30T01:07:54.409Z,7.22
2022-11-30T01:10:23.029Z,7.17
2022-11-30T01:12:49.752Z,7.18
2022-11-30T01:15:16.881Z,7.19
2022-11-30T01:17:43.610Z,7.23
2022-11-30T01:20:10.927Z,7.27
2022-11-30T01:22:37.852Z,7.25
2022-11-30T01:25:05.161Z,7.22
2022-11-30T01:27:32.107Z,7.19
2022-11-30T01:29:58.921Z,7.16
2022-11-30T01:32:25.699Z,7.17
2022-11-30T01:34:52.488Z,7.16
2022-11-30T01:37:19.347Z,7.19
2022-11-30T01:39:46.105Z,7.16
2022-11-30T01:42:15.552Z,7.15
2022-11-30T01:44:48.682Z,7.17
2022-11-30T01:47:16.100Z,7.21
2022-11-30T01:49:48.465Z,7.19
2022-11-30T01:52:20.578Z,7.20
2022-11-30T01:54:57.544Z,7.19
2022-11-30T01:57:26.362Z,7.17
2022-11-30T01:59:57.089Z,7.17
2022-11-30T02:02:34.177Z,7.19
2022-11-30T02:05:02.300Z,7.19
2022-11-30T02:07:29.096Z,7.15
2022-11-30T02:09:55.892Z,7.16
2022-11-30T02:12:51.887Z,7.12
2022-11-30T02:15:23.705Z,7.12
2022-11-30T02:18:01.842Z,7.12
2022-11-30T02:20:54.053Z,7.11
2022-11-30T02:23:29.915Z,7.11
2022-11-30T02:26:11.673Z,7.14
2022-11-30T02:28:57.247Z,7.11
2022-11-30T02:31:30.028Z,7.09
2022-11-30T02:33:59.438Z,7.09
2022-11-30T02:36:28.211Z,7.10
2022-11-30T02:38:56.135Z,7.11
2022-11-30T02:41:22.900Z,7.12
2022-11-30T02:43:50.900Z,7.16
2022-11-30T02:46:35.294Z,7.15
2022-11-30T02:49:11.628Z,7.14
2022-11-30T02:51:40.026Z,7.12
2022-11-30T02:54:07.181Z,7.11
2022-11-30T02:56:34.391Z,7.09
2022-11-30T02:59:01.114Z,7.10
2022-11-30T03:01:27.942Z,7.10
2022-11-30T03:03:54.666Z,7.06
2022-11-30T03:06:21.469Z,7.03
2022-11-30T03:08:48.142Z,7.05
2022-11-30T03:11:15.016Z,7.06
2022-11-30T03:13:41.817Z,7.05
2022-11-30T03:16:09.709Z,7.06
2022-11-30T03:18:37.457Z,7.06
2022-11-30T03:21:11.508Z,7.07
2022-11-30T03:23:39.538Z,7.03
2022-11-30T03:26:08.254Z,7.02
2022-11-30T03:28:36.421Z,7.03
2022-11-30T03:31:03.672Z,7.05
2022-11-30T03:33:30.568Z,7.03
2022-11-30T03:36:06.061Z,7.02
2022-11-30T03:38:33.458Z,6.97
2022-11-30T03:41:09.648Z,6.97
2022-11-30T03:43:36.484Z,6.94
2022-11-30T03:46:04.039Z,6.92
2022-11-30T03:48:31.549Z,6.92
2022-11-30T03:50:58.730Z,6.91
2022-11-30T03:53:25.644Z,6.92
2022-11-30T03:55:54.115Z,6.87
2022-11-30T03:58:21.966Z,6.91
2022-11-30T04:00:48.772Z,6.94
2022-11-30T04:03:16.233Z,6.98
2022-11-30T04:05:43.412Z,6.93
2022-11-30T04:08:10.139Z,6.96
2022-11-30T04:10:36.864Z,7.00
2022-11-30T04:13:03.594Z,6.99
2022-11-30T04:15:30.335Z,6.98
2022-11-30T04:17:57.093Z,6.94
2022-11-30T04:20:23.814Z,6.95
2022-11-30T04:22:50.589Z,6.95
2022-11-30T04:25:17.492Z,6.96
2022-11-30T04:27:46.662Z,6.96
2022-11-30T04:30:13.984Z,6.97
2022-11-30T04:32:40.735Z,6.97
2022-11-30T04:35:08.543Z,6.98
2022-11-30T04:37:35.223Z,6.99
2022-11-30T04:40:02.001Z,6.99
2022-11-30T04:42:28.956Z,7.00
2022-11-30T04:44:55.697Z,6.99
2022-11-30T04:47:22.417Z,6.97
2022-11-30T04:49:49.146Z,6.96
2022-11-30T04:52:16.106Z,6.94
2022-11-30T04:54:42.842Z,6.90
2022-11-30T04:57:09.549Z,6.91
2022-11-30T04:59:36.249Z,6.95
2022-11-30T05:02:03.059Z,6.94
2022-11-30T05:04:29.927Z,6.92
2022-11-30T05:06:56.880Z,6.94
2022-11-30T05:09:23.681Z,6.90
2022-11-30T05:11:50.460Z,6.86
2022-11-30T05:14:17.266Z,6.83
2022-11-30T05:16:47.495Z,6.85
2022-11-30T05:19:14.745Z,6.83
2022-11-30T05:21:45.592Z,6.81
2022-11-30T05:24:13.340Z,6.79
2022-11-30T05:26:40.171Z,6.77
2022-11-30T05:29:07.077Z,6.77
2022-11-30T05:31:34.069Z,6.75
2022-11-30T05:34:00.882Z,6.75
2022-11-30T05:36:27.595Z,6.76
2022-11-30T05:38:54.362Z,6.75
2022-11-30T05:41:21.118Z,6.75
2022-11-30T05:43:47.817Z,6.75
2022-11-30T05:46:14.621Z,6.76
2022-11-30T05:48:41.383Z,6.73
2022-11-30T05:51:11.787Z,6.73
2022-11-30T05:53:38.948Z,6.71
2022-11-30T05:56:08.207Z,6.68
2022-11-30T05:58:35.370Z,6.70
2022-11-30T06:01:02.330Z,6.68
2022-11-30T06:03:30.709Z,6.66
2022-11-30T06:05:57.534Z,6.68
2022-11-30T06:08:27.063Z,6.70
2022-11-30T06:10:54.448Z,6.72
2022-11-30T06:13:24.736Z,6.69
2022-11-30T06:15:59.630Z,6.71
2022-11-30T06:18:26.746Z,6.77
2022-11-30T06:20:53.514Z,6.74
2022-11-30T06:23:20.435Z,6.72
2022-11-30T06:25:47.211Z,6.68
2022-11-30T06:28:14.110Z,6.67
2022-11-30T06:30:40.946Z,6.71
2022-11-30T06:33:07.830Z,6.71
2022-11-30T06:35:34.677Z,6.66
2022-11-30T06:38:01.693Z,6.62
2022-11-30T06:40:28.547Z,6.63
2022-11-30T06:42:55.346Z,6.66
2022-11-30T06:45:22.165Z,6.66
2022-11-30T06:47:49.204Z,6.67
2022-11-30T06:50:16.091Z,6.65
2022-11-30T06:52:43.237Z,6.65
2022-11-30T06:55:11.020Z,6.66
2022-11-30T06:57:37.903Z,6.66
2022-11-30T07:00:09.450Z,6.63
2022-11-30T07:02:36.684Z,6.63
2022-11-30T07:05:04.110Z,6.63
2022-11-30T07:07:31.021Z,6.61
2022-11-30T07:09:58.394Z,6.59
2022-11-30T07:12:25.782Z,6.61
2022-11-30T07:14:55.479Z,6.62
2022-11-30T07:17:22.752Z,6.63
2022-11-30T07:19:49.552Z,6.65
2022-11-30T07:22:16.558Z,6.68
2022-11-30T07:25:02.327Z,6.65
2022-11-30T07:27:29.235Z,6.70
2022-11-30T07:29:56.246Z,6.71
2022-11-30T07:32:23.085Z,6.71
2022-11-30T07:34:50.132Z,6.71
2022-11-30T07:37:17.060Z,6.72
2022-11-30T07:39:43.770Z,6.76
2022-11-30T07:42:10.922Z,6.77
2022-11-30T07:44:37.699Z,6.84
2022-11-30T07:47:04.433Z,6.87
2022-11-30T07:49:31.180Z,6.83
2022-11-30T07:51:57.827Z,6.81
2022-11-30T07:54:24.786Z,6.78
2022-11-30T07:56:51.544Z,6.78
2022-11-30T07:59:18.247Z,6.76
2022-11-30T08:01:45.041Z,6.76
2022-11-30T08:04:13.981Z,6.72
2022-11-30T08:06:41.093Z,6.71
2022-11-30T08:09:07.914Z,6.73
2022-11-30T08:11:35.615Z,6.72
2022-11-30T08:14:03.477Z,6.71
2022-11-30T08:16:34.496Z,6.71
2022-11-30T08:19:01.435Z,6.71
2022-11-30T08:21:28.266Z,6.73
2022-11-30T08:23:56.721Z,6.76
2022-11-30T08:26:26.139Z,6.79
2022-11-30T08:28:53.818Z,6.79
2022-11-30T08:31:22.037Z,6.82
2022-11-30T08:33:49.876Z,6.82
2022-11-30T08:36:18.078Z,6.87
2022-11-30T08:38:45.961Z,6.98
2022-11-30T08:41:15.218Z,7.02
2022-11-30T08:43:42.772Z,7.07
2022-11-30T08:49:19.866Z,6.97
2022-11-30T08:52:16.069Z,6.93
2022-11-30T08:54:34.560Z,6.91
2022-11-30T08:57:01.971Z,6.90
2022-11-30T08:59:31.325Z,6.91
2022-11-30T09:01:58.143Z,6.94
2022-11-30T09:04:25.074Z,6.95
2022-11-30T09:06:51.763Z,7.04
2022-11-30T09:09:18.623Z,7.11
2022-11-30T09:11:45.353Z,7.06
2022-11-30T09:14:12.060Z,7.04
2022-11-30T09:16:38.904Z,7.07
2022-11-30T09:19:05.662Z,7.06
2022-11-30T09:21:32.737Z,7.09
2022-11-30T09:23:59.595Z,7.07
2022-11-30T09:26:26.559Z,7.12
2022-11-30T09:28:54.165Z,7.15
2022-11-30T09:31:25.489Z,7.13
2022-11-30T09:33:53.134Z,7.11
2022-11-30T09:36:22.441Z,7.10
2022-11-30T09:38:49.725Z,7.16
2022-11-30T09:41:28.672Z,7.16
2022-11-30T09:44:17.210Z,7.18
2022-11-30T09:47:07.284Z,7.21
2022-11-30T09:49:37.747Z,7.25
2022-11-30T09:52:09.792Z,7.25
2022-11-30T09:54:45.751Z,7.23
2022-11-30T09:57:25.747Z,7.27
2022-11-30T10:00:01.301Z,7.24
2022-11-30T10:02:33.622Z,7.19
2022-11-30T10:05:01.018Z,7.15
2022-11-30T10:08:06.341Z,7.14
2022-11-30T10:10:56.163Z,7.12
2022-11-30T10:13:55.771Z,7.14
2022-11-30T10:16:38.934Z,7.19
2022-11-30T10:19:14.683Z,7.45
2022-11-30T10:22:04.310Z,7.57
2022-11-30T10:24:47.178Z,7.60
2022-11-30T10:27:22.751Z,7.58
2022-11-30T10:29:50.027Z,7.55
2022-11-30T10:32:22.478Z,7.56
2022-11-30T10:34:56.182Z,7.51
2022-11-30T10:37:34.101Z,7.51
2022-11-30T10:40:02.713Z,7.51
2022-11-30T10:42:40.949Z,7.49
2022-11-30T10:45:21.390Z,7.43
2022-11-30T10:48:14.309Z,7.46
2022-11-30T10:50:41.519Z,7.50
2022-11-30T10:53:12.341Z,7.52
2022-11-30T10:55:44.131Z,7.53
2022-11-30T10:58:33.014Z,7.51
2022-11-30T11:01:05.968Z,7.54
2022-11-30T11:03:33.962Z,7.58
2022-11-30T11:06:21.810Z,7.63
2022-11-30T11:08:48.511Z,7.80
2022-11-30T11:11:35.257Z,7.83
2022-11-30T11:14:30.464Z,7.71
2022-11-30T11:17:06.710Z,7.68
2022-11-30T11:19:38.716Z,7.65
2022-11-30T11:22:15.078Z,7.69
2022-11-30T11:24:42.453Z,7.80
2022-11-30T11:27:25.851Z,7.80
2022-11-30T11:30:16.546Z,7.83
2022-11-30T11:32:58.804Z,7.89
2022-11-30T11:35:37.785Z,7.90
2022-11-30T11:38:23.687Z,7.82
2022-11-30T11:41:06.565Z,7.79
2022-11-30T11:43:54.449Z,7.78
2022-11-30T11:46:21.849Z,7.70
2022-11-30T11:49:02.348Z,7.65
2022-11-30T11:51:38.341Z,7.77
2022-11-30T11:54:19.524Z,7.79
2022-11-30T11:56:46.910Z,7.82
2022-11-30T11:59:22.327Z,7.86
2022-11-30T12:02:01.236Z,7.95
2022-11-30T12:04:50.380Z,7.96
2022-11-30T12:07:32.895Z,7.94
2022-11-30T12:09:59.616Z,7.98
2022-11-30T12:12:27.511Z,7.99
2022-11-30T12:14:55.621Z,7.93
2022-11-30T12:17:25.543Z,7.98
2022-11-30T12:20:16.033Z,8.05
2022-11-30T12:23:01.036Z,8.06
2022-11-30T12:25:33.456Z,8.04
2022-11-30T12:28:30.273Z,8.06
2022-11-30T12:31:17.717Z,8.04
2022-11-30T12:34:13.141Z,8.00
2022-11-30T12:37:12.138Z,8.01
2022-11-30T12:40:13.019Z,8.05
2022-11-30T12:43:15.177Z,8.13
2022-11-30T12:45:46.131Z,8.15
2022-11-30T12:48:40.601Z,8.19
2022-11-30T12:51:30.205Z,8.18
2022-11-30T12:54:32.545Z,8.18
2022-11-30T12:57:18.854Z,8.17
2022-11-30T12:59:55.530Z,8.13
2022-11-30T13:03:00.571Z,8.11
2022-11-30T13:05:52.297Z,8.10
2022-11-30T13:08:25.967Z,8.11
2022-11-30T13:11:00.144Z,8.08
2022-11-30T13:13:31.646Z,8.04
2022-11-30T13:16:00.720Z,8.01
2022-11-30T13:18:28.357Z,7.94
2022-11-30T13:21:16.106Z,7.88
2022-11-30T13:23:59.330Z,7.84
2022-11-30T13:26:28.789Z,7.80
2022-11-30T13:29:20.063Z,7.75
2022-11-30T13:32:56.252Z,7.81
2022-11-30T13:35:27.685Z,7.85
2022-11-30T13:41:05.662Z,7.84
2022-11-30T13:43:50.650Z,7.85
2022-11-30T13:46:23.569Z,7.81
2022-11-30T13:49:16.266Z,7.77
2022-11-30T13:51:43.022Z,7.71
2022-11-30T13:54:39.178Z,7.70
2022-11-30T13:57:35.293Z,7.74
2022-11-30T14:00:25.080Z,7.70
2022-11-30T14:02:57.964Z,7.71
2022-11-30T14:05:35.265Z,7.64
2022-11-30T14:08:02.048Z,7.65
2022-11-30T14:10:35.667Z,7.64
2022-11-30T14:13:29.339Z,7.61
2022-11-30T14:16:00.358Z,7.60
2022-11-30T14:18:30.175Z,7.58
2022-11-30T14:21:13.402Z,7.60
2022-11-30T14:23:40.196Z,7.59
2022-11-30T14:26:14.028Z,7.57
2022-11-30T14:28:51.726Z,7.56
2022-11-30T14:31:24.097Z,7.59
2022-11-30T14:34:08.678Z,7.58
2022-11-30T14:36:40.330Z,7.51
2022-11-30T14:39:27.684Z,7.53
2022-11-30T14:41:54.923Z,7.54
2022-11-30T14:44:21.711Z,7.54
2022-11-30T14:46:51.864Z,7.53
2022-11-30T14:49:18.547Z,7.52
2022-11-30T14:51:49.214Z,7.53
2022-11-30T14:54:44.278Z,7.54
2022-11-30T14:57:32.456Z,7.51
2022-11-30T14:59:59.568Z,7.44
2022-11-30T15:02:34.097Z,7.39
2022-11-30T15:05:02.033Z,7.43
2022-11-30T15:07:29.794Z,7.41
2022-11-30T15:10:15.356Z,7.39
2022-11-30T15:12:44.765Z,7.43
2022-11-30T15:15:27.722Z,7.39
2022-11-30T15:17:58.823Z,7.37
2022-11-30T15:20:25.919Z,7.33
2022-11-30T15:22:54.704Z,7.31
2022-11-30T15:25:24.918Z,7.30
2022-11-30T15:27:52.325Z,7.29
2022-11-30T15:30:19.609Z,7.31
2022-11-30T15:32:49.186Z,7.35
2022-11-30T15:35:21.736Z,7.40
2022-11-30T15:37:49.581Z,7.40
2022-11-30T15:40:25.592Z,7.37
2022-11-30T15:42:52.513Z,7.35
2022-11-30T15:45:25.828Z,7.30
2022-11-30T15:47:54.064Z,7.25
2022-11-30T15:50:28.287Z,7.28
2022-11-30T15:53:03.526Z,7.28
2022-11-30T15:55:45.649Z,7.29
2022-11-30T15:58:33.680Z,7.29
2022-11-30T16:01:09.867Z,7.31
2022-11-30T16:03:58.903Z,7.35
2022-11-30T16:06:30.986Z,7.31
2022-11-30T16:09:03.291Z,7.32
2022-11-30T16:11:30.095Z,7.28
2022-11-30T16:13:56.865Z,7.25
2022-11-30T16:16:30.854Z,7.20
2022-11-30T16:18:57.659Z,7.19
2022-11-30T16:21:24.355Z,7.16
2022-11-30T16:23:51.165Z,7.16
2022-11-30T16:29:05.680Z,7.17
2022-11-30T16:31:32.509Z,7.16
2022-11-30T16:33:59.336Z,7.15
2022-11-30T16:36:26.728Z,7.11
2022-11-30T16:38:53.745Z,7.08
2022-11-30T16:41:21.399Z,7.08
2022-11-30T16:43:50.220Z,7.08
2022-11-30T16:46:25.536Z,7.07
2022-11-30T16:48:53.139Z,7.03
2022-11-30T16:51:27.074Z,7.08
2022-11-30T16:53:55.144Z,7.07
2022-11-30T16:56:22.561Z,7.07
2022-11-30T16:58:49.620Z,7.09
2022-11-30T17:01:34.782Z,7.12
2022-11-30T17:04:11.211Z,7.10
2022-11-30T17:06:38.481Z,7.09
2022-11-30T17:09:05.219Z,7.05
2022-11-30T17:11:34.891Z,7.03
2022-11-30T17:14:01.747Z,7.00
2022-11-30T17:16:28.574Z,7.01
2022-11-30T17:18:55.381Z,6.98
2022-11-30T17:21:28.940Z,6.99
2022-11-30T17:23:56.124Z,6.98
2022-11-30T17:26:23.255Z,6.98
2022-11-30T17:28:49.974Z,6.95
2022-11-30T17:31:17.245Z,6.92
2022-11-30T17:33:48.184Z,6.95
2022-11-30T17:36:16.903Z,6.98
2022-11-30T17:38:44.159Z,6.96
2022-11-30T17:41:19.296Z,6.98
2022-11-30T17:43:47.700Z,6.95
2022-11-30T17:46:17.709Z,6.91
2022-11-30T17:48:44.924Z,6.96
2022-11-30T17:51:12.317Z,6.92
2022-11-30T17:53:40.521Z,6.87
2022-11-30T17:56:13.848Z,6.91
2022-11-30T17:58:44.128Z,6.94
2022-11-30T18:01:25.851Z,6.92
2022-11-30T18:03:54.146Z,6.94
2022-11-30T18:06:21.221Z,6.94
2022-11-30T18:08:48.011Z,6.98
2022-11-30T18:11:17.503Z,6.96
2022-11-30T18:13:44.452Z,6.94
2022-11-30T18:16:14.425Z,6.95
2022-11-30T18:18:45.929Z,6.98
2022-11-30T18:21:16.705Z,7.01
2022-11-30T18:23:43.517Z,7.01
2022-11-30T18:26:15.956Z,6.97
2022-11-30T18:28:42.855Z,6.91
2022-11-30T18:31:09.908Z,6.86
2022-11-30T18:33:37.438Z,6.84
2022-11-30T18:36:08.761Z,6.82
2022-11-30T18:38:38.526Z,6.79
2022-11-30T18:41:06.547Z,6.80
2022-11-30T18:43:34.666Z,6.75
2022-11-30T18:46:12.243Z,6.76
2022-11-30T18:48:40.910Z,6.81
2022-11-30T18:51:15.606Z,6.79
2022-11-30T18:53:42.575Z,6.75
2022-11-30T18:56:10.169Z,6.72
2022-11-30T18:58:36.946Z,6.70
2022-11-30T19:01:13.680Z,6.68
2022-11-30T19:03:41.070Z,6.67
2022-11-30T19:06:08.998Z,6.66
2022-11-30T19:08:36.798Z,6.64
2022-11-30T19:11:05.798Z,6.58
2022-11-30T19:13:33.466Z,6.59
2022-11-30T19:16:05.054Z,6.57
2022-11-30T19:18:32.981Z,6.57
2022-11-30T19:21:00.089Z,6.57
2022-11-30T19:23:26.947Z,6.58
2022-11-30T19:26:00.532Z,6.55
2022-11-30T19:28:30.315Z,6.50
2022-11-30T19:30:58.374Z,6.46
2022-11-30T19:33:26.399Z,6.48
2022-11-30T19:35:53.223Z,6.50
2022-11-30T19:38:19.947Z,6.53
2022-11-30T19:40:46.636Z,6.52
2022-11-30T19:43:13.357Z,6.50
2022-11-30T19:45:40.116Z,6.42
2022-11-30T19:48:06.947Z,6.40
2022-11-30T19:50:33.637Z,6.39
2022-11-30T19:53:00.454Z,6.41
2022-11-30T19:55:27.276Z,6.41
2022-11-30T19:57:54.055Z,6.38
2022-11-30T20:00:20.907Z,6.40
2022-11-30T20:02:49.526Z,6.34
2022-11-30T20:05:17.492Z,6.31
2022-11-30T20:07:44.407Z,6.29
2022-11-30T20:10:13.431Z,6.22
2022-11-30T20:12:40.944Z,6.21
2022-11-30T20:15:08.426Z,6.19
2022-11-30T20:17:35.290Z,6.22
2022-11-30T20:20:02.259Z,6.23
2022-11-30T20:22:29.243Z,6.22
2022-11-30T20:24:56.223Z,6.20
2022-11-30T20:27:24.694Z,6.20
2022-11-30T20:29:52.068Z,6.19
2022-11-30T20:32:19.468Z,6.12
2022-11-30T20:34:46.874Z,6.14
2022-11-30T20:37:15.604Z,6.07
2022-11-30T20:39:45.789Z,6.01
2022-11-30T20:42:13.231Z,5.94
2022-11-30T20:44:40.162Z,5.94
2022-11-30T20:47:06.986Z,5.96
2022-11-30T20:49:33.776Z,5.95
2022-11-30T20:52:00.553Z,5.95
2022-11-30T20:54:29.843Z,5.91
2022-11-30T20:56:58.653Z,5.92
2022-11-30T20:59:26.717Z,5.84
2022-11-30T21:01:55.395Z,5.79
2022-11-30T21:04:24.634Z,5.73
2022-11-30T21:06:52.186Z,5.77
2022-11-30T21:09:19.773Z,5.85
2022-11-30T21:11:47.983Z,5.85
2022-11-30T21:14:15.558Z,5.88
2022-11-30T21:16:42.362Z,5.89
2022-11-30T21:19:15.116Z,5.91
2022-11-30T21:21:41.977Z,5.90
2022-11-30T21:24:10.778Z,5.89
2022-11-30T21:26:40.244Z,5.86
2022-11-30T21:29:14.448Z,5.80
2022-11-30T21:31:42.160Z,5.76
2022-11-30T21:34:09.053Z,5.71
2022-11-30T21:36:35.834Z,5.70
2022-11-30T21:39:06.442Z,5.66
2022-11-30T21:41:38.989Z,5.63
2022-11-30T21:44:07.971Z,5.60
2022-11-30T21:46:34.773Z,5.59
2022-11-30T21:49:02.155Z,5.60
2022-11-30T21:51:30.315Z,5.55
2022-11-30T21:53:59.350Z,5.52
2022-11-30T21:56:31.551Z,5.53
2022-11-30T21:58:58.839Z,5.52
2022-11-30T22:01:28.774Z,5.49
2022-11-30T22:03:57.467Z,5.45
2022-11-30T22:06:26.090Z,5.45
2022-11-30T22:08:53.134Z,5.53
2022-11-30T22:11:21.878Z,5.50
2022-11-30T22:13:53.163Z,5.50
2022-11-30T22:16:21.700Z,5.46
2022-11-30T22:18:51.292Z,5.46
2022-11-30T22:21:20.260Z,5.42
2022-11-30T22:23:52.202Z,5.35
2022-11-30T22:26:21.261Z,5.29
2022-11-30T22:29:11.377Z,5.30
2022-11-30T22:31:40.746Z,5.29
2022-11-30T22:34:08.652Z,5.30
2022-11-30T22:36:37.535Z,5.32
2022-11-30T22:39:09.720Z,5.29
2022-11-30T22:41:37.213Z,5.28
2022-11-30T22:44:04.129Z,5.37
2022-11-30T22:46:33.825Z,5.38
2022-11-30T22:49:02.993Z,5.40
2022-11-30T22:51:31.539Z,5.43
2022-11-30T22:53:59.578Z,5.35
2022-11-30T22:56:32.234Z,5.30
2022-11-30T22:59:00.868Z,5.23
2022-11-30T23:01:33.488Z,5.19
2022-11-30T23:04:04.134Z,5.18
2022-11-30T23:06:31.493Z,5.17
2022-11-30T23:08:59.143Z,5.22
2022-11-30T23:11:26.701Z,5.29
2022-11-30T23:13:53.708Z,5.29
2022-11-30T23:16:21.200Z,5.20
2022-11-30T23:18:54.568Z,5.15
2022-11-30T23:21:30.245Z,5.17
2022-11-30T23:24:01.401Z,5.19
2022-11-30T23:26:31.159Z,5.23
2022-11-30T23:29:00.152Z,5.17
2022-11-30T23:31:34.098Z,5.16
2022-11-30T23:34:06.051Z,5.13
2022-11-30T23:36:34.235Z,5.12
2022-11-30T23:39:07.039Z,5.06
2022-11-30T23:41:34.263Z,5.08
2022-11-30T23:44:01.464Z,5.07
2022-11-30T23:46:28.675Z,5.07
2022-11-30T23:48:55.778Z,5.08
2022-11-30T23:51:23.795Z,5.07
2022-11-30T23:53:50.904Z,5.06
2022-11-30T23:56:19.996Z,5.09
2022-11-30T23:58:47.159Z,5.12
